Accueil
METAR-TAF:

METAR-TAF

Aéroports :

Gilmer Municipal Airport (Fox Stephens Field)

Gilmer, Texas, États-Unis

latitude: 32-41-56N, longitude: 094-56-55W, altitude: 127 m

Observation

Le bulletin a été fait il y a 29 minutes, à 23:15 UTC
Vent 5 kt de sud/sud-ouest
Température 32°C
Humidité 59%
Pression 1011 hPa
Visibilité: 16.1 km
Ciel clair

METAR: KJXI 212315Z AUTO 20005KT 10SM CLR 32/23 A2985 RMK AO2 T03200229

Heure: 18:44 (23:44 UTC)


TAF: absent

Observations et prévisions météorologiques de plus de 4000 aéroports (messages METAR et TAF).

Les stations disponibles sont représentées par des disques jaunes et rouges sur la carte.

Passer la souris dessus pour voir le nom de la station.

Cliquer dessus pour voir les observations et prévisions météorologiques.

Pour changer de carte: cliquez sur les boutons verts avec une croix noire pour zoomer, sur le bouton vert avec un tiret pour effectuer un zoom arrière, ou sur les flèches vertes pour les cartes adjacentes.


METAR-TAF: